createdAt,value
2023-04-27T00:00:02.011Z,76.40
2023-04-27T00:02:35.983Z,76.60
2023-04-27T00:05:04.014Z,76.70
2023-04-27T00:07:31.704Z,76.80
2023-04-27T00:09:58.469Z,77.00
2023-04-27T00:12:25.609Z,77.30
2023-04-27T00:14:52.412Z,77.40
2023-04-27T00:17:19.274Z,77.60
2023-04-27T00:19:47.502Z,77.80
2023-04-27T00:22:14.328Z,77.90
2023-04-27T00:24:41.780Z,78.00
2023-04-27T00:27:08.518Z,78.30
2023-04-27T00:29:35.554Z,78.50
2023-04-27T00:32:02.445Z,78.50
2023-04-27T00:34:29.339Z,78.70
2023-04-27T00:36:56.088Z,78.90
2023-04-27T00:39:22.932Z,79.10
2023-04-27T00:41:49.683Z,79.20
2023-04-27T00:44:25.847Z,79.30
2023-04-27T00:46:53.303Z,79.40
2023-04-27T00:49:20.899Z,79.30
2023-04-27T00:51:48.324Z,79.40
2023-04-27T00:54:19.956Z,79.50
2023-04-27T00:56:50.716Z,79.60
2023-04-27T00:59:18.313Z,79.80
2023-04-27T01:01:51.707Z,79.80
2023-04-27T01:04:19.742Z,79.90
2023-04-27T01:06:47.169Z,79.90
2023-04-27T01:09:14.407Z,80.00
2023-04-27T01:11:41.432Z,80.20
2023-04-27T01:14:08.367Z,80.30
2023-04-27T01:16:36.118Z,80.30
2023-04-27T01:19:02.892Z,80.40
2023-04-27T01:21:29.653Z,80.50
2023-04-27T01:23:58.607Z,80.60
2023-04-27T01:26:25.442Z,80.70
2023-04-27T01:28:52.234Z,81.40
2023-04-27T01:31:20.041Z,81.00
2023-04-27T01:33:47.176Z,81.10
2023-04-27T01:36:14.248Z,81.10
2023-04-27T01:38:41.115Z,81.20
2023-04-27T01:41:09.298Z,81.20
2023-04-27T01:43:39.159Z,81.10
2023-04-27T01:46:09.333Z,81.10
2023-04-27T01:48:36.438Z,81.20
2023-04-27T01:51:03.752Z,81.20
2023-04-27T01:53:31.030Z,81.30
2023-04-27T01:55:59.642Z,81.40
2023-04-27T01:58:27.010Z,81.50
2023-04-27T02:00:54.067Z,81.60
2023-04-27T02:03:21.015Z,81.70
2023-04-27T02:05:50.433Z,82.30
2023-04-27T02:08:17.245Z,81.80
2023-04-27T02:10:45.095Z,81.90
2023-04-27T02:13:11.911Z,81.90
2023-04-27T02:15:38.857Z,82.00
2023-04-27T02:18:05.959Z,82.10
2023-04-27T02:20:33.175Z,82.20
2023-04-27T02:23:02.278Z,82.30
2023-04-27T02:25:29.109Z,82.80
2023-04-27T02:27:59.133Z,82.30
2023-04-27T02:30:26.536Z,82.30
2023-04-27T02:32:59.743Z,82.30
2023-04-27T02:35:26.845Z,82.50
2023-04-27T02:37:53.616Z,82.50
2023-04-27T02:40:20.420Z,82.60
2023-04-27T02:42:47.276Z,82.70
2023-04-27T02:45:14.235Z,82.80
2023-04-27T02:47:41.548Z,82.90
2023-04-27T02:50:08.930Z,83.00
2023-04-27T02:52:36.253Z,83.10
2023-04-27T02:55:03.109Z,83.20
2023-04-27T02:57:29.955Z,83.10
2023-04-27T02:59:56.822Z,83.20
2023-04-27T03:02:23.659Z,83.20
2023-04-27T03:04:54.886Z,83.20
2023-04-27T03:07:22.226Z,83.30
2023-04-27T03:09:49.037Z,83.40
2023-04-27T03:12:15.931Z,83.40
2023-04-27T03:14:42.729Z,83.60
2023-04-27T03:17:09.587Z,83.60
2023-04-27T03:19:36.427Z,83.70
2023-04-27T03:22:03.208Z,83.80
2023-04-27T03:24:30.549Z,83.90
2023-04-27T03:26:57.350Z,84.00
2023-04-27T03:29:24.185Z,84.10
2023-04-27T03:31:51.017Z,84.10
2023-04-27T03:34:17.958Z,84.10
2023-04-27T03:36:44.759Z,84.10
2023-04-27T03:39:11.980Z,84.20
2023-04-27T03:41:39.021Z,84.20
2023-04-27T03:44:07.033Z,84.20
2023-04-27T03:46:34.436Z,84.30
2023-04-27T03:49:01.569Z,84.30
2023-04-27T03:51:28.570Z,84.40
2023-04-27T03:53:55.662Z,84.40
2023-04-27T03:56:23.034Z,84.40
2023-04-27T03:58:51.262Z,84.40
2023-04-27T04:01:19.913Z,84.30
2023-04-27T04:03:48.189Z,84.30
2023-04-27T04:06:15.154Z,84.20
2023-04-27T04:08:42.039Z,84.20
2023-04-27T04:11:08.837Z,84.30
2023-04-27T04:13:37.149Z,84.40
2023-04-27T04:16:08.120Z,84.50
2023-04-27T04:18:35.632Z,84.50
2023-04-27T04:21:03.056Z,84.40
2023-04-27T04:23:29.876Z,84.50
2023-04-27T04:25:57.799Z,84.50
2023-04-27T04:28:28.104Z,84.40
2023-04-27T04:30:54.921Z,84.50
2023-04-27T04:33:22.026Z,84.50
2023-04-27T04:35:48.964Z,84.50
2023-04-27T04:38:15.936Z,84.60
2023-04-27T04:40:45.344Z,85.10
2023-04-27T04:43:13.429Z,84.60
2023-04-27T04:45:42.623Z,84.70
2023-04-27T04:48:10.341Z,84.70
2023-04-27T04:50:37.259Z,84.80
2023-04-27T04:53:04.125Z,84.80
2023-04-27T04:55:33.029Z,84.90
2023-04-27T04:57:59.865Z,85.00
2023-04-27T05:00:28.488Z,85.50
2023-04-27T05:02:55.650Z,85.00
2023-04-27T05:05:22.611Z,85.00
2023-04-27T05:07:49.417Z,85.10
2023-04-27T05:10:16.282Z,85.10
2023-04-27T05:12:44.446Z,85.20
2023-04-27T05:15:11.755Z,85.20
2023-04-27T05:17:38.572Z,85.20
2023-04-27T05:20:06.627Z,85.20
2023-04-27T05:22:33.377Z,85.70
2023-04-27T05:25:00.390Z,85.00
2023-04-27T05:27:27.392Z,85.00
2023-04-27T05:29:54.200Z,85.00
2023-04-27T05:32:21.037Z,84.80
2023-04-27T05:34:49.414Z,84.80
2023-04-27T05:37:16.554Z,84.70
2023-04-27T05:39:43.351Z,84.80
2023-04-27T05:42:10.181Z,84.80
2023-04-27T05:44:36.942Z,84.70
2023-04-27T05:47:03.712Z,84.70
2023-04-27T05:49:30.603Z,84.70
2023-04-27T05:51:59.013Z,84.70
2023-04-27T05:54:27.475Z,84.60
2023-04-27T05:56:54.386Z,84.60
2023-04-27T05:59:21.904Z,84.50
2023-04-27T06:01:49.046Z,84.40
2023-04-27T06:04:16.166Z,84.20
2023-04-27T06:06:44.720Z,84.10
2023-04-27T06:09:11.857Z,83.80
2023-04-27T06:11:38.851Z,83.60
2023-04-27T06:14:05.680Z,83.40
2023-04-27T06:16:32.600Z,83.20
2023-04-27T06:18:59.476Z,83.80
2023-04-27T06:21:26.537Z,83.30
2023-04-27T06:23:53.389Z,83.00
2023-04-27T06:26:20.254Z,82.60
2023-04-27T06:28:47.149Z,81.90
2023-04-27T06:31:14.202Z,81.80
2023-04-27T06:33:41.432Z,80.70
2023-04-27T06:36:08.479Z,80.40
2023-04-27T06:38:35.421Z,80.20
2023-04-27T06:41:03.064Z,79.90
2023-04-27T06:43:30.762Z,79.80
2023-04-27T06:45:57.659Z,79.40
2023-04-27T06:48:24.552Z,79.20
2023-04-27T06:50:52.073Z,79.00
2023-04-27T06:53:18.973Z,78.80
2023-04-27T06:55:48.295Z,78.70
2023-04-27T06:58:15.477Z,78.70
2023-04-27T07:00:42.346Z,78.50
2023-04-27T07:03:09.232Z,78.00
2023-04-27T07:05:36.261Z,77.60
2023-04-27T07:08:06.210Z,77.20
2023-04-27T07:10:35.323Z,77.00
2023-04-27T07:13:02.107Z,77.20
2023-04-27T07:15:29.330Z,76.40
2023-04-27T07:17:56.425Z,76.20
2023-04-27T07:20:23.673Z,76.00
2023-04-27T07:22:50.479Z,75.90
2023-04-27T07:25:17.349Z,75.90
2023-04-27T07:27:45.214Z,75.80
2023-04-27T07:30:14.142Z,75.70
2023-04-27T07:32:41.908Z,75.50
2023-04-27T07:35:11.993Z,75.30
2023-04-27T07:37:38.767Z,75.00
2023-04-27T07:40:14.339Z,74.80
2023-04-27T07:42:42.074Z,74.60
2023-04-27T07:45:09.674Z,74.30
2023-04-27T07:47:36.543Z,74.00
2023-04-27T07:50:04.549Z,73.60
2023-04-27T07:52:31.368Z,73.40
2023-04-27T07:54:58.182Z,73.10
2023-04-27T07:57:24.989Z,73.10
2023-04-27T07:59:51.932Z,73.00
2023-04-27T08:02:20.284Z,72.80
2023-04-27T08:04:48.599Z,72.50
2023-04-27T08:07:17.327Z,72.10
2023-04-27T08:09:44.536Z,71.70
2023-04-27T08:12:11.363Z,71.30
2023-04-27T08:14:38.233Z,70.80
2023-04-27T08:17:05.123Z,70.50
2023-04-27T08:19:32.004Z,70.10
2023-04-27T08:21:58.835Z,69.80
2023-04-27T08:24:25.773Z,69.50
2023-04-27T08:26:52.535Z,69.30
2023-04-27T08:29:27.011Z,69.60
2023-04-27T08:31:56.846Z,68.60
2023-04-27T08:34:24.223Z,68.30
2023-04-27T08:36:51.194Z,68.00
2023-04-27T08:39:18.219Z,67.80
2023-04-27T08:41:45.348Z,67.50
2023-04-27T08:44:12.382Z,67.40
2023-04-27T08:46:39.450Z,67.30
2023-04-27T08:49:07.892Z,67.10
2023-04-27T08:51:35.246Z,66.80
2023-04-27T08:54:02.338Z,66.40
2023-04-27T08:56:29.812Z,65.90
2023-04-27T08:58:57.314Z,65.90
2023-04-27T09:01:24.854Z,65.60
2023-04-27T09:03:58.830Z,65.10
2023-04-27T09:06:35.730Z,64.50
2023-04-27T09:09:03.300Z,64.50
2023-04-27T09:11:34.865Z,64.40
2023-04-27T09:14:18.075Z,64.10
2023-04-27T09:16:45.252Z,63.80
2023-04-27T09:19:12.308Z,64.00
2023-04-27T09:21:39.251Z,63.00
2023-04-27T09:24:12.956Z,62.70
2023-04-27T09:26:39.855Z,62.40
2023-04-27T09:29:06.608Z,62.40
2023-04-27T09:31:36.599Z,62.20
2023-04-27T09:34:03.870Z,61.90
2023-04-27T09:36:32.411Z,61.60
2023-04-27T09:39:02.346Z,61.20
2023-04-27T09:41:29.257Z,60.80
2023-04-27T09:43:57.830Z,60.60
2023-04-27T09:46:25.456Z,60.50
2023-04-27T09:48:52.219Z,60.50
2023-04-27T09:51:19.025Z,60.40
2023-04-27T09:53:49.669Z,60.20
2023-04-27T09:56:46.711Z,60.00
2023-04-27T09:59:28.555Z,59.40
2023-04-27T10:01:56.847Z,59.40
2023-04-27T10:04:42.743Z,60.10
2023-04-27T10:07:13.313Z,59.30
2023-04-27T10:09:47.300Z,58.90
2023-04-27T10:12:22.578Z,58.60
2023-04-27T10:14:53.675Z,58.40
2023-04-27T10:17:34.261Z,58.00
2023-04-27T10:20:02.718Z,57.20
2023-04-27T10:22:48.737Z,57.10
2023-04-27T10:25:19.337Z,56.60
2023-04-27T10:27:51.940Z,56.30
2023-04-27T10:30:19.690Z,56.00
2023-04-27T10:32:56.924Z,55.90
2023-04-27T10:35:35.854Z,55.60
2023-04-27T10:38:09.930Z,55.40
2023-04-27T10:40:38.246Z,54.80
2023-04-27T10:43:11.756Z,54.90
2023-04-27T10:45:38.798Z,53.90
2023-04-27T10:48:06.019Z,53.50
2023-04-27T10:50:33.088Z,53.00
2023-04-27T10:53:02.306Z,52.50
2023-04-27T10:55:29.986Z,51.80
2023-04-27T10:57:57.324Z,51.60
2023-04-27T11:00:31.733Z,51.60
2023-04-27T11:03:11.856Z,51.80
2023-04-27T11:05:39.088Z,51.70
2023-04-27T11:08:10.133Z,52.80
2023-04-27T11:10:41.420Z,52.10
2023-04-27T11:13:14.403Z,52.10
2023-04-27T11:15:49.323Z,52.10
2023-04-27T11:18:19.624Z,52.40
2023-04-27T11:20:49.170Z,52.50
2023-04-27T11:23:30.229Z,52.60
2023-04-27T11:25:57.092Z,52.50
2023-04-27T11:28:24.500Z,52.60
2023-04-27T11:31:00.933Z,52.50
2023-04-27T11:33:27.959Z,52.40
2023-04-27T11:35:54.919Z,52.60
2023-04-27T11:38:22.007Z,52.60
2023-04-27T11:41:05.193Z,52.70
2023-04-27T11:43:32.428Z,52.50
2023-04-27T11:46:03.460Z,52.60
2023-04-27T11:48:30.523Z,52.70
2023-04-27T11:51:01.366Z,52.70
2023-04-27T11:53:36.498Z,52.90
2023-04-27T11:56:05.314Z,53.10
2023-04-27T11:58:36.620Z,53.40
2023-04-27T12:01:04.470Z,53.40
2023-04-27T12:03:31.918Z,53.40
2023-04-27T12:06:11.466Z,53.40
2023-04-27T12:08:43.359Z,53.40
2023-04-27T12:11:10.192Z,53.40
2023-04-27T12:13:37.080Z,53.50
2023-04-27T12:16:06.078Z,53.20
2023-04-27T12:18:32.940Z,53.00
2023-04-27T12:21:02.884Z,52.60
2023-04-27T12:23:30.295Z,52.70
2023-04-27T12:25:57.072Z,52.90
2023-04-27T12:28:23.880Z,52.90
2023-04-27T12:30:51.087Z,53.00
2023-04-27T12:33:18.033Z,53.10
2023-04-27T12:35:44.858Z,53.10
2023-04-27T12:38:11.735Z,53.00
2023-04-27T12:40:38.673Z,53.00
2023-04-27T12:43:06.484Z,53.00
2023-04-27T12:45:33.285Z,52.40
2023-04-27T12:48:03.978Z,51.80
2023-04-27T12:50:32.325Z,51.30
2023-04-27T12:53:00.069Z,50.80
2023-04-27T12:55:33.893Z,50.70
2023-04-27T12:58:02.135Z,50.80
2023-04-27T13:00:29.864Z,51.00
2023-04-27T13:02:57.408Z,51.10
2023-04-27T13:05:24.524Z,51.20
2023-04-27T13:07:52.047Z,51.50
2023-04-27T13:10:18.795Z,51.90
2023-04-27T13:12:45.913Z,52.10
2023-04-27T13:15:12.740Z,52.10
2023-04-27T13:17:40.614Z,52.30
2023-04-27T13:20:09.742Z,52.60
2023-04-27T13:22:36.689Z,53.00
2023-04-27T13:25:03.598Z,53.10
2023-04-27T13:27:30.478Z,53.10
2023-04-27T13:29:57.269Z,53.00
2023-04-27T13:32:24.070Z,53.20
2023-04-27T13:34:50.965Z,53.70
2023-04-27T13:37:18.390Z,54.00
2023-04-27T13:39:45.661Z,54.10
2023-04-27T13:42:12.731Z,54.20
2023-04-27T13:44:39.510Z,54.50
2023-04-27T13:47:06.918Z,54.80
2023-04-27T13:49:33.907Z,55.10
2023-04-27T13:52:00.878Z,55.30
2023-04-27T13:54:27.832Z,56.10
2023-04-27T13:56:54.702Z,55.70
2023-04-27T13:59:21.763Z,55.70
2023-04-27T14:01:48.782Z,55.90
2023-04-27T14:04:15.808Z,56.30
2023-04-27T14:06:42.714Z,56.50
2023-04-27T14:09:09.618Z,56.70
2023-04-27T14:11:45.413Z,57.00
2023-04-27T14:14:22.666Z,57.20
2023-04-27T14:16:51.236Z,57.40
2023-04-27T14:19:20.240Z,57.40
2023-04-27T14:21:47.896Z,57.70
2023-04-27T14:24:14.851Z,58.40
2023-04-27T14:26:45.247Z,58.00
2023-04-27T14:29:12.171Z,58.10
2023-04-27T14:31:39.805Z,58.30
2023-04-27T14:34:07.350Z,58.50
2023-04-27T14:36:34.239Z,58.60
2023-04-27T14:39:01.445Z,58.60
2023-04-27T14:41:28.405Z,58.60
2023-04-27T14:43:55.341Z,58.80
2023-04-27T14:46:22.369Z,59.00
2023-04-27T14:48:49.334Z,59.00
2023-04-27T14:51:16.415Z,59.00
2023-04-27T14:53:43.964Z,59.10
2023-04-27T14:56:11.385Z,59.20
2023-04-27T14:58:38.649Z,59.10
2023-04-27T15:01:07.335Z,59.30
2023-04-27T15:03:34.402Z,59.20
2023-04-27T15:06:01.660Z,59.10
2023-04-27T15:08:29.414Z,59.10
2023-04-27T15:10:59.805Z,59.30
2023-04-27T15:13:27.445Z,59.40
2023-04-27T15:16:04.853Z,59.60
2023-04-27T15:18:32.038Z,59.80
2023-04-27T15:21:00.792Z,60.10
2023-04-27T15:23:27.717Z,60.50
2023-04-27T15:25:56.382Z,60.70
2023-04-27T15:28:23.339Z,61.20
2023-04-27T15:30:50.377Z,61.80
2023-04-27T15:33:17.491Z,62.30
2023-04-27T15:35:44.389Z,62.70
2023-04-27T15:38:12.615Z,63.80
2023-04-27T15:40:39.717Z,63.70
2023-04-27T15:43:06.906Z,64.10
2023-04-27T15:45:33.790Z,64.50
2023-04-27T15:48:00.722Z,65.00
2023-04-27T15:50:27.677Z,65.40
2023-04-27T15:52:54.422Z,66.50
2023-04-27T15:55:22.083Z,66.50
2023-04-27T15:57:48.888Z,67.30
2023-04-27T16:00:16.934Z,67.90
2023-04-27T16:02:44.017Z,68.20
2023-04-27T16:05:11.162Z,68.80
2023-04-27T16:07:39.870Z,69.30
2023-04-27T16:10:07.683Z,69.70
2023-04-27T16:12:34.705Z,69.90
2023-04-27T16:15:01.584Z,70.10
2023-04-27T16:17:35.734Z,70.50
2023-04-27T16:20:06.381Z,71.10
2023-04-27T16:22:36.737Z,71.60
2023-04-27T16:25:06.471Z,72.10
2023-04-27T16:27:33.551Z,72.50
2023-04-27T16:30:00.433Z,73.00
2023-04-27T16:32:27.536Z,73.50
2023-04-27T16:34:54.357Z,73.80
2023-04-27T16:37:24.166Z,74.10
2023-04-27T16:39:51.147Z,74.50
2023-04-27T16:42:20.784Z,74.70
2023-04-27T16:44:47.686Z,75.10
2023-04-27T16:47:14.659Z,75.30
2023-04-27T16:49:43.402Z,76.20
2023-04-27T16:52:11.265Z,76.10
2023-04-27T16:54:38.018Z,76.40
2023-04-27T16:57:04.860Z,76.50
2023-04-27T16:59:31.745Z,76.80
2023-04-27T17:02:06.063Z,77.10
2023-04-27T17:04:40.775Z,77.30
2023-04-27T17:07:09.094Z,77.40
2023-04-27T17:09:36.818Z,77.60
2023-04-27T17:12:08.169Z,77.90
2023-04-27T17:14:35.235Z,78.20
2023-04-27T17:17:02.398Z,78.40
2023-04-27T17:19:29.247Z,78.70
2023-04-27T17:21:56.012Z,79.00
2023-04-27T17:24:24.649Z,79.20
2023-04-27T17:26:51.634Z,79.40
2023-04-27T17:29:18.476Z,79.60
2023-04-27T17:31:45.815Z,79.70
2023-04-27T17:34:12.766Z,80.00
2023-04-27T17:36:39.561Z,80.10
2023-04-27T17:39:06.710Z,80.50
2023-04-27T17:41:35.507Z,80.80
2023-04-27T17:44:03.976Z,81.00
2023-04-27T17:46:31.019Z,81.10
2023-04-27T17:48:57.838Z,81.30
2023-04-27T17:51:24.676Z,81.50
2023-04-27T17:53:51.591Z,81.60
2023-04-27T17:56:18.371Z,81.90
2023-04-27T17:58:45.204Z,82.20
2023-04-27T18:01:13.429Z,82.50
2023-04-27T18:03:42.119Z,82.70
2023-04-27T18:06:09.295Z,82.90
2023-04-27T18:08:36.132Z,83.00
2023-04-27T18:11:03.148Z,83.10
2023-04-27T18:13:31.870Z,83.30
2023-04-27T18:15:59.244Z,83.50
2023-04-27T18:18:26.925Z,83.70
2023-04-27T18:20:53.850Z,83.90
2023-04-27T18:23:20.952Z,84.00
2023-04-27T18:25:47.722Z,84.10
2023-04-27T18:28:14.519Z,84.20
2023-04-27T18:30:41.560Z,84.30
2023-04-27T18:33:08.530Z,84.40
2023-04-27T18:35:35.556Z,84.40
2023-04-27T18:38:03.399Z,84.40
2023-04-27T18:40:30.691Z,84.50
2023-04-27T18:42:57.819Z,84.70
2023-04-27T18:45:24.637Z,84.80
2023-04-27T18:47:51.656Z,84.90
2023-04-27T18:50:19.174Z,85.10
2023-04-27T18:52:46.716Z,85.30
2023-04-27T18:55:17.735Z,85.40
2023-04-27T18:57:45.331Z,85.50
2023-04-27T19:00:13.081Z,85.60
2023-04-27T19:02:40.334Z,85.70
2023-04-27T19:05:13.017Z,85.80
2023-04-27T19:07:40.625Z,86.10
2023-04-27T19:10:08.155Z,86.30
2023-04-27T19:12:35.092Z,86.00
2023-04-27T19:15:02.186Z,85.60
2023-04-27T19:17:29.121Z,85.30
2023-04-27T19:19:56.093Z,85.40
2023-04-27T19:22:22.992Z,85.40
2023-04-27T19:24:49.827Z,85.50
2023-04-27T19:27:16.585Z,85.50
2023-04-27T19:29:51.404Z,85.60
2023-04-27T19:32:19.462Z,85.90
2023-04-27T19:34:46.492Z,86.00
2023-04-27T19:37:13.733Z,86.10
2023-04-27T19:39:40.567Z,86.30
2023-04-27T19:42:07.437Z,86.50
2023-04-27T19:44:34.283Z,86.60
2023-04-27T19:47:01.131Z,86.80
2023-04-27T19:49:32.581Z,86.90
2023-04-27T19:52:00.134Z,87.20
2023-04-27T19:54:26.955Z,87.20
2023-04-27T19:56:54.441Z,87.30
2023-04-27T19:59:21.597Z,87.60
2023-04-27T20:01:48.657Z,87.90
2023-04-27T20:04:17.729Z,88.10
2023-04-27T20:06:45.191Z,88.40
2023-04-27T20:09:12.072Z,88.70
2023-04-27T20:11:39.290Z,88.90
2023-04-27T20:14:06.408Z,89.00
2023-04-27T20:16:33.477Z,89.20
2023-04-27T20:19:00.488Z,89.30
2023-04-27T20:21:28.138Z,89.30
2023-04-27T20:23:55.017Z,89.40
2023-04-27T20:26:22.550Z,89.50
2023-04-27T20:28:49.609Z,90.00
2023-04-27T20:31:16.786Z,89.60
2023-04-27T20:33:43.815Z,89.90
2023-04-27T20:36:17.300Z,89.90
2023-04-27T20:38:45.429Z,90.00
2023-04-27T20:41:12.709Z,90.00
2023-04-27T20:43:40.096Z,90.10
2023-04-27T20:46:07.898Z,90.10
2023-04-27T20:48:34.791Z,90.20
2023-04-27T20:51:01.703Z,90.30
2023-04-27T20:53:28.565Z,90.30
2023-04-27T20:55:55.657Z,90.40
2023-04-27T20:58:23.050Z,90.40
2023-04-27T21:00:49.815Z,90.40
2023-04-27T21:03:16.866Z,90.50
2023-04-27T21:05:44.292Z,90.50
2023-04-27T21:08:11.166Z,90.50
2023-04-27T21:10:38.012Z,90.50
2023-04-27T21:13:04.890Z,90.60
2023-04-27T21:15:31.965Z,90.60
2023-04-27T21:17:59.044Z,90.70
2023-04-27T21:20:26.387Z,90.70
2023-04-27T21:22:53.216Z,90.70
2023-04-27T21:25:21.133Z,90.80
2023-04-27T21:27:49.939Z,90.80
2023-04-27T21:30:16.698Z,90.80
2023-04-27T21:32:43.831Z,91.00
2023-04-27T21:35:10.961Z,91.10
2023-04-27T21:37:37.901Z,91.20
2023-04-27T21:40:06.012Z,91.20
2023-04-27T21:42:32.747Z,91.30
2023-04-27T21:44:59.591Z,90.90
2023-04-27T21:47:26.695Z,90.70
2023-04-27T21:49:53.644Z,90.50
2023-04-27T21:52:21.625Z,90.40
2023-04-27T21:54:48.552Z,90.40
2023-04-27T21:57:16.234Z,90.40
2023-04-27T21:59:44.127Z,90.30
2023-04-27T22:02:12.349Z,90.40
2023-04-27T22:04:39.543Z,90.50
2023-04-27T22:07:07.927Z,90.60
2023-04-27T22:09:35.704Z,90.60
2023-04-27T22:12:05.785Z,90.70
2023-04-27T22:14:32.748Z,90.70
2023-04-27T22:17:01.122Z,90.80
2023-04-27T22:19:28.640Z,90.80
2023-04-27T22:21:55.588Z,90.90
2023-04-27T22:24:22.505Z,90.90
2023-04-27T22:26:49.349Z,90.90
2023-04-27T22:29:16.264Z,91.00
2023-04-27T22:31:43.401Z,91.10
2023-04-27T22:34:13.721Z,91.10
2023-04-27T22:36:41.304Z,91.10
2023-04-27T22:39:08.311Z,91.10
2023-04-27T22:41:35.086Z,91.10
2023-04-27T22:44:01.946Z,91.20
2023-04-27T22:46:28.723Z,91.20
2023-04-27T22:48:55.559Z,91.20
2023-04-27T22:51:23.548Z,91.30
2023-04-27T22:53:50.476Z,91.30
2023-04-27T22:56:17.332Z,91.30
2023-04-27T22:58:44.178Z,91.30
2023-04-27T23:01:11.041Z,91.30
2023-04-27T23:03:38.059Z,91.40
2023-04-27T23:06:05.442Z,91.40
2023-04-27T23:08:32.270Z,91.40
2023-04-27T23:10:59.032Z,91.50
2023-04-27T23:13:27.493Z,91.50
2023-04-27T23:15:54.450Z,91.50
2023-04-27T23:18:21.531Z,91.50
2023-04-27T23:20:55.296Z,91.50
2023-04-27T23:23:22.101Z,91.60
2023-04-27T23:25:48.920Z,91.80
2023-04-27T23:28:15.799Z,91.60
2023-04-27T23:30:42.605Z,91.60
2023-04-27T23:33:09.460Z,91.60
2023-04-27T23:35:36.254Z,91.60
2023-04-27T23:38:03.189Z,91.70
2023-04-27T23:40:29.969Z,91.70
2023-04-27T23:42:57.152Z,91.70
2023-04-27T23:45:23.892Z,91.70
2023-04-27T23:47:50.808Z,92.00
2023-04-27T23:50:17.694Z,91.80
2023-04-27T23:52:45.180Z,91.80
2023-04-27T23:55:12.118Z,91.80
2023-04-27T23:57:38.927Z,91.80
